Time;durP1;ratioP1;P1;durP2;ratioP2;P2;SDS_P1;SDS_P2;PMS_P1;PMS_P2;Temp;Humidity;BMP_temperature;BMP_pressure;BME280_temperature;BME280_humidity;BME280_pressure;Samples;Min_cycle;Max_cycle;Signal;HPM_P1;HPM_P2
2022/09/07 07:14:04;;;;;;;9.50;2.40;;;;;;;22.90;64.55;96466.34;2049217;28;1258829;-68
2022/09/07 07:15:07;;;;;;;9.98;2.60;;;;;;;22.75;64.47;96462.53;2094485;28;20585;-65
2022/09/07 07:16:14;;;;;;;6.10;2.20;;;;;;;22.55;64.68;96449.34;2094790;28;20197;-65
2022/09/07 07:17:15;;;;;;;6.85;2.10;;;;;;;22.60;64.08;96457.72;2093918;28;20192;-65
2022/09/07 07:34:35;;;;;;;4.78;1.77;;;;;;;24.37;60.93;96502.41;2089591;28;20568;-65
2022/09/07 07:35:36;;;;;;;15.63;2.63;;;;;;;24.61;59.83;96498.19;2087106;28;20194;-65
2022/09/07 07:36:38;;;;;;;8.98;2.47;;;;;;;24.74;59.76;96503.09;2087228;28;20288;-65
2022/09/07 07:37:39;;;;;;;12.05;2.00;;;;;;;24.96;58.73;96495.50;2080847;28;20250;-65
2022/09/07 07:38:43;;;;;;;7.65;2.00;;;;;;;25.15;58.62;96505.91;2077810;28;20668;-65
2022/09/07 07:40:08;;;;;;;8.52;2.20;;;;;;;25.29;57.89;96506.28;2077951;28;20225;-65
2022/09/07 07:41:16;;;;;;;5.30;2.15;;;;;;;25.31;57.32;96510.44;2078512;28;20648;-65
2022/09/07 08:19:12;;;;;;;7.96;2.20;;;;;;;27.70;52.52;96538.50;4265312;27;20420;-63
2022/09/07 08:20:15;;;;;;;6.53;2.00;;;;;;;27.67;53.12;96538.88;2074054;27;1267411;-63
2022/09/07 08:21:16;;;;;;;13.10;2.22;;;;;;;28.05;52.55;96532.72;2117900;28;20197;-63
2022/09/07 08:22:21;;;;;;;5.53;1.88;;;;;;;28.41;51.84;96529.34;2110868;28;20215;-63
2022/09/07 08:23:23;;;;;;;6.30;2.00;;;;;;;28.38;51.50;96532.41;2102963;28;20707;-63
2022/09/07 08:24:24;;;;;;;13.65;2.70;;;;;;;28.06;51.29;96516.47;2103497;28;20410;-63
2022/09/07 08:32:05;;;;;;;13.48;2.63;;;;;;;27.53;53.10;96519.84;2100688;28;20266;-63
2022/09/07 08:33:06;;;;;;;14.40;2.30;;;;;;;27.78;52.98;96529.56;2103503;28;20537;-63
2022/09/07 08:34:07;;;;;;;12.55;2.30;;;;;;;27.76;51.78;96519.00;2103435;28;20196;-65
2022/09/07 08:35:09;;;;;;;8.02;2.30;;;;;;;27.59;52.86;96525.50;2103704;28;20234;-65
2022/09/07 08:36:13;;;;;;;8.40;2.05;;;;;;;26.51;54.84;96515.28;2103206;28;20195;-65
2022/09/07 08:37:14;;;;;;;9.32;2.70;;;;;;;26.44;54.29;96525.00;2101444;28;20855;-65
2022/09/07 08:38:16;;;;;;;14.73;3.05;;;;;;;26.79;54.23;96520.25;2098308;28;20295;-65
2022/09/07 08:39:21;;;;;;;12.05;2.22;;;;;;;26.82;54.27;96532.44;2103607;28;20235;-65
2022/09/07 08:40:22;;;;;;;11.65;2.60;;;;;;;25.96;56.62;96518.69;2103519;28;20286;-65
2022/09/07 08:41:58;;;;;;;6.53;2.08;;;;;;;26.28;55.13;96538.41;2103490;28;20333;-65
2022/09/07 08:52:21;;;;;;;6.07;1.95;;;;;;;26.41;56.11;96536.06;2109027;27;20542;-62
2022/09/07 08:53:24;;;;;;;8.68;1.85;;;;;;;26.70;55.94;96535.47;2087572;28;20294;-63
2022/09/07 08:54:26;;;;;;;10.35;1.95;;;;;;;26.60;55.74;96537.53;2088631;28;20210;-62
2022/09/07 08:55:37;;;;;;;11.68;2.22;;;;;;;26.87;54.59;96540.81;2093518;28;20662;-63
2022/09/07 08:56:45;;;;;;;10.77;2.90;;;;;;;26.21;55.47;96541.78;2086663;28;21132;-63
2022/09/07 08:58:19;;;;;;;9.38;2.20;;;;;;;26.32;55.16;96545.09;2081956;28;20233;-62
2022/09/07 08:59:59;;;;;;;11.88;2.72;;;;;;;26.32;55.93;96545.09;2081088;28;20197;-62
2022/09/07 09:01:00;;;;;;;15.35;2.47;;;;;;;26.79;54.68;96535.47;2080796;28;20237;-62
2022/09/07 09:02:24;;;;;;;8.63;2.03;;;;;;;26.96;53.90;96542.44;2080621;28;20233;-63
2022/09/07 09:03:32;;;;;;;9.38;2.22;;;;;;;27.31;53.05;96544.75;2082610;28;20205;-63
2022/09/07 09:04:35;;;;;;;11.32;1.90;;;;;;;26.56;54.13;96528.13;2082709;28;20204;-63
2022/09/07 09:06:04;;;;;;;12.50;1.95;;;;;;;26.73;53.74;96529.78;2082514;28;20282;-63
2022/09/07 09:07:21;;;;;;;8.95;2.13;;;;;;;27.00;54.20;96540.25;2082415;28;20197;-63
2022/09/07 09:08:40;;;;;;;7.53;2.17;;;;;;;27.02;53.45;96541.72;2090507;28;20727;-62
2022/09/07 09:10:00;;;;;;;13.63;2.30;;;;;;;26.95;54.12;96540.75;2090833;28;20342;-63
2022/09/07 09:11:16;;;;;;;12.40;2.78;;;;;;;26.79;54.61;96530.97;2083466;28;20302;-63
2022/09/07 09:12:55;;;;;;;11.35;2.88;;;;;;;27.12;53.36;96538.00;2091135;28;20487;-63
2022/09/07 09:25:32;;;;;;;7.15;2.38;;;;;;;28.52;51.49;96515.47;2087267;28;20181;-62
2022/09/07 09:26:34;;;;;;;9.32;2.55;;;;;;;29.11;50.34;96509.22;2086992;28;20204;-64
2022/09/07 09:27:35;;;;;;;9.75;1.85;;;;;;;28.81;50.06;96514.66;2088023;28;20810;-65
2022/09/07 09:28:37;;;;;;;9.63;2.00;;;;;;;29.47;49.34;96500.34;2089544;28;20239;-65
2022/09/07 09:29:40;;;;;;;9.13;2.55;;;;;;;29.90;48.74;96518.38;2089225;28;20270;-64
2022/09/07 09:30:41;;;;;;;8.05;2.28;;;;;;;30.39;47.52;96519.34;2090515;28;20197;-66
2022/09/07 09:31:42;;;;;;;7.20;2.35;;;;;;;30.46;47.44;96519.38;2090909;28;20246;-63
2022/09/07 09:32:51;;;;;;;7.32;1.88;;;;;;;30.62;46.69;96510.19;2087839;28;20874;-63
2022/09/07 09:34:08;;;;;;;14.63;2.70;;;;;;;30.67;46.04;96521.19;2087002;28;20204;-63
2022/09/07 09:35:12;;;;;;;10.50;2.10;;;;;;;30.61;45.13;96524.69;2090231;28;20204;-63
2022/09/07 09:36:30;;;;;;;11.65;1.88;;;;;;;30.37;45.78;96518.72;2091544;28;20248;-62
2022/09/07 09:37:33;;;;;;;9.60;2.33;;;;;;;30.09;47.11;96507.94;2087501;28;20260;-62
2022/09/07 09:38:39;;;;;;;13.00;2.40;;;;;;;29.85;47.69;96525.31;2087825;28;20436;-63
2022/09/07 09:50:32;;;;;;;21.90;2.47;;;;;;;27.62;54.01;96517.13;2064647;27;1234402;-62
2022/09/07 09:51:55;;;;;;;11.70;2.55;;;;;;;26.87;55.12;96524.72;2103286;28;20204;-62
2022/09/07 09:53:39;;;;;;;13.00;2.33;;;;;;;26.91;56.44;96517.19;2078470;28;20260;-64
2022/09/07 09:54:43;;;;;;;6.20;2.15;;;;;;;26.46;56.70;96506.09;2078694;28;20244;-65
2022/09/07 10:04:24;;;;;;;7.72;2.08;;;;;;;27.29;55.74;96510.09;2086433;28;21068;-62
2022/09/07 10:05:39;;;;;;;9.38;1.90;;;;;;;27.44;54.90;96506.66;2084011;28;20847;-62
2022/09/07 10:07:08;;;;;;;12.77;2.55;;;;;;;27.38;56.00;96508.19;2082492;28;20205;-62
2022/09/07 10:08:30;;;;;;;8.05;2.38;;;;;;;26.28;57.23;96503.63;2063598;28;20233;-62
2022/09/07 10:09:37;;;;;;;13.93;2.45;;;;;;;26.17;57.25;96505.66;2067054;28;20579;-63
2022/09/07 10:10:49;;;;;;;5.65;2.05;;;;;;;26.04;57.54;96490.09;2060379;28;20286;-62
2022/09/07 10:11:58;;;;;;;10.38;2.15;;;;;;;26.36;56.84;96487.53;2067447;28;20652;-62
2022/09/07 10:13:20;;;;;;;9.80;2.60;;;;;;;26.88;56.01;96497.75;2067921;28;20209;-62
2022/09/07 10:20:15;;;;;;;11.38;2.15;;;;;;;29.57;49.18;96502.72;2085332;28;20562;-62
2022/09/07 10:21:27;;;;;;;12.05;2.60;;;;;;;29.79;49.87;96495.47;2080554;28;20259;-65
2022/09/07 10:22:36;;;;;;;9.15;1.90;;;;;;;30.11;47.82;96495.94;2070888;28;20310;-64
2022/09/07 10:23:37;;;;;;;12.18;1.80;;;;;;;30.77;46.67;96496.59;2048424;28;20287;-65
2022/09/07 10:24:40;;;;;;;6.80;1.80;;;;;;;31.35;44.84;96484.56;2049271;28;20888;-64
2022/09/07 10:25:44;;;;;;;10.18;2.65;;;;;;;31.58;44.17;96497.72;2065608;28;20681;-64
2022/09/07 10:26:49;;;;;;;12.68;2.45;;;;;;;31.02;44.39;96493.38;2065994;28;20190;-64
2022/09/07 10:28:08;;;;;;;6.28;1.77;;;;;;;30.61;45.70;96484.28;2065215;28;20226;-65
2022/09/07 10:29:29;;;;;;;7.45;2.63;;;;;;;31.74;44.48;96491.94;2065792;28;20233;-65
2022/09/07 10:37:09;;;;;;;6.90;2.80;;;;;;;33.59;39.51;96467.53;2062258;28;20536;-65
2022/09/07 10:38:19;;;;;;;6.00;1.60;;;;;;;33.78;38.44;96478.44;2064801;28;20432;-64
2022/09/07 10:39:34;;;;;;;3.43;1.33;;;;;;;33.87;39.35;96465.50;2062303;28;20433;-62
2022/09/07 10:40:41;;;;;;;7.30;1.73;;;;;;;34.27;38.06;96476.78;2065410;28;20423;-63
2022/09/07 10:42:18;;;;;;;14.10;2.43;;;;;;;32.40;39.49;96467.81;2065341;28;20523;-63
2022/09/07 10:43:34;;;;;;;5.30;2.10;;;;;;;33.13;39.42;96477.56;2049817;28;20540;-64
2022/09/07 10:44:41;;;;;;;4.77;1.77;;;;;;;33.77;38.94;96480.31;2053821;28;20430;-65
2022/09/07 10:46:05;;;;;;;7.43;1.80;;;;;;;34.08;39.31;96475.09;2059840;28;20511;-64
2022/09/07 10:47:19;;;;;;;8.30;2.10;;;;;;;34.04;39.82;96474.69;2059577;28;20424;-65
2022/09/07 10:48:44;;;;;;;6.33;1.90;;;;;;;32.64;42.35;96471.69;2052643;28;20487;-64
2022/09/07 10:49:56;;;;;;;7.00;1.80;;;;;;;31.80;42.97;96475.97;2060073;28;20516;-65
2022/09/07 10:51:46;;;;;;;3.60;1.90;;;;;;;30.98;44.11;96471.38;2058503;28;20550;-65
2022/09/07 10:53:09;;;;;;;8.17;2.00;;;;;;;30.19;44.49;96478.81;2049967;28;20493;-62
2022/09/07 10:54:52;;;;;;;4.83;1.43;;;;;;;29.84;46.48;96476.06;2058964;28;20531;-63
2022/09/07 10:56:14;;;;;;;7.80;1.73;;;;;;;28.48;47.01;96479.25;2050560;28;21182;-62
2022/09/07 10:57:34;;;;;;;8.10;1.60;;;;;;;29.35;46.53;96477.69;2051845;28;20469;-62
2022/09/07 10:58:41;;;;;;;5.93;1.77;;;;;;;29.74;46.51;96470.19;2055616;28;20495;-63
2022/09/07 11:05:11;;;;;;;5.80;1.40;;;;;;;32.23;41.20;96462.03;2056727;28;20420;-62
2022/09/07 11:06:51;;;;;;;7.07;1.73;;;;;;;31.20;42.77;96465.91;2057090;28;20428;-62
2022/09/07 11:07:55;;;;;;;8.67;2.10;;;;;;;31.97;41.78;96462.88;2028438;29;20547;-63
2022/09/07 11:09:15;;;;;;;4.17;1.50;;;;;;;32.05;40.49;96465.38;2051903;28;20480;-63
2022/09/07 11:10:28;;;;;;;4.53;1.87;;;;;;;32.92;38.91;96465.19;2056387;28;20425;-63
2022/09/07 11:11:37;;;;;;;5.30;1.20;;;;;;;33.07;36.17;96459.50;2055325;28;20530;-63
2022/09/07 11:13:03;;;;;;;4.00;1.60;;;;;;;33.65;35.30;96444.16;2056458;28;20458;-63
2022/09/07 11:14:12;;;;;;;7.40;1.60;;;;;;;33.18;36.10;96450.69;2058720;28;20959;-63
2022/09/07 11:15:17;;;;;;;6.37;1.77;;;;;;;32.97;36.27;96456.44;2054594;28;20421;-63
2022/09/07 11:16:30;;;;;;;3.63;1.70;;;;;;;33.28;35.97;96444.84;2056006;28;21035;-63
2022/09/07 11:18:03;;;;;;;6.23;2.20;;;;;;;33.06;36.41;96444.31;2052738;28;20993;-63
2022/09/07 11:19:14;;;;;;;4.10;1.50;;;;;;;31.61;37.73;96437.94;2055114;28;20477;-63
2022/09/07 11:20:57;;;;;;;8.57;1.60;;;;;;;31.33;38.54;96447.03;2053374;28;20524;-63
2022/09/07 11:22:08;;;;;;;7.00;1.93;;;;;;;31.73;38.30;96440.88;2057969;28;20808;-63
2022/09/07 11:23:19;;;;;;;8.10;1.40;;;;;;;30.30;39.79;96443.28;2057711;28;20433;-63
2022/09/07 11:24:42;;;;;;;4.80;1.57;;;;;;;30.20;40.64;96444.66;2059698;28;20607;-63
2022/09/07 11:26:07;;;;;;;5.60;2.00;;;;;;;31.64;38.52;96439.41;2054738;28;21235;-63
2022/09/07 11:27:18;;;;;;;6.13;1.80;;;;;;;30.95;39.43;96440.25;2055448;28;20483;-63
2022/09/07 11:28:24;;;;;;;5.27;1.57;;;;;;;30.20;40.17;96433.91;2057996;28;20460;-63
2022/09/07 11:29:42;;;;;;;13.00;2.07;;;;;;;29.44;41.94;96428.13;2059022;28;20511;-63
2022/09/07 11:30:53;;;;;;;3.60;1.80;;;;;;;28.99;44.68;96424.75;2056933;28;20493;-63
2022/09/07 11:32:11;;;;;;;4.30;1.37;;;;;;;30.53;41.77;96427.91;2050745;28;21098;-63
2022/09/07 11:33:33;;;;;;;6.50;1.50;;;;;;;31.10;40.59;96428.53;2052362;28;20449;-63
2022/09/07 11:34:46;;;;;;;5.90;1.67;;;;;;;30.19;41.64;96426.84;2054597;28;20493;-63
2022/09/07 11:41:02;;;;;;;5.07;1.90;;;;;;;29.11;42.66;96425.91;2050884;28;20442;-63
2022/09/07 11:42:16;;;;;;;7.27;1.50;;;;;;;28.72;42.68;96416.41;2050021;28;20885;-63
2022/09/07 11:43:44;;;;;;;8.57;1.63;;;;;;;29.43;42.02;96426.47;2051128;28;21021;-63
2022/09/07 11:44:52;;;;;;;3.60;1.37;;;;;;;30.40;40.58;96409.78;2050715;28;21197;-63
2022/09/07 11:46:03;;;;;;;6.80;1.50;;;;;;;29.88;39.81;96418.16;2053694;28;20461;-63
2022/09/07 11:47:21;;;;;;;6.67;1.10;;;;;;;30.11;38.68;96415.19;2043336;28;20449;-63
2022/09/07 11:48:30;;;;;;;3.10;1.37;;;;;;;31.41;37.94;96422.56;2054185;28;20426;-63
2022/09/07 11:49:31;;;;;;;4.03;1.80;;;;;;;31.32;36.88;96415.69;2057389;28;20421;-63
2022/09/07 11:50:38;;;;;;;5.40;1.80;;;;;;;32.37;35.48;96420.44;2058039;28;20428;-63
2022/09/07 11:51:59;;;;;;;7.00;1.40;;;;;;;33.00;34.50;96420.84;2057813;28;20464;-63
2022/09/07 11:53:26;;;;;;;7.23;1.53;;;;;;;33.51;34.66;96414.50;2057635;28;20471;-63
2022/09/07 11:54:53;;;;;;;3.70;1.40;;;;;;;32.97;35.43;96413.19;2057939;28;20465;-63
2022/09/07 11:56:01;;;;;;;5.70;1.17;;;;;;;33.25;33.97;96412.78;2059269;28;20476;-63
2022/09/07 11:57:02;;;;;;;6.57;1.90;;;;;;;33.44;34.80;96411.03;2060059;28;20472;-63
2022/09/07 11:58:22;;;;;;;5.20;2.10;;;;;;;33.42;35.30;96420.41;2051533;28;20431;-63
2022/09/07 11:59:39;;;;;;;8.93;1.47;;;;;;;33.89;33.82;96423.59;2049903;28;20516;-62
2022/09/07 12:01:14;;;;;;;7.10;1.57;;;;;;;34.04;33.82;96411.59;2050591;28;20458;-63
2022/09/07 12:02:40;;;;;;;3.90;1.47;;;;;;;33.89;33.52;96410.06;2050627;28;20482;-63
2022/09/07 12:04:45;;;;;;;3.27;1.27;;;;;;;33.66;34.72;96418.75;2051294;28;20482;-63
2022/09/07 12:06:27;;;;;;;2.10;1.30;;;;;;;33.83;34.55;96417.19;2026521;29;21039;-63
2022/09/07 12:07:41;;;;;;;3.87;1.53;;;;;;;34.04;34.16;96419.72;2051630;28;20578;-63
2022/09/07 12:09:12;;;;;;;5.03;1.40;;;;;;;34.17;33.94;96428.53;2048908;28;20445;-63
2022/09/07 12:10:41;;;;;;;8.87;1.23;;;;;;;33.78;34.24;96417.00;2050426;28;21316;-63
2022/09/07 12:12:01;;;;;;;5.60;1.87;;;;;;;34.09;33.86;96404.44;2060125;28;20472;-63
2022/09/07 12:13:24;;;;;;;4.73;1.30;;;;;;;34.38;33.02;96412.91;2049955;28;20448;-63
2022/09/07 12:14:34;;;;;;;4.10;1.10;;;;;;;34.02;33.98;96415.34;2044131;28;20451;-63
2022/09/07 12:15:57;;;;;;;5.93;1.20;;;;;;;34.72;33.43;96407.13;2052658;28;20460;-63
2022/09/07 12:17:25;;;;;;;5.83;1.33;;;;;;;34.89;33.29;96412.75;2053559;28;20472;-63
2022/09/07 12:19:19;;;;;;;3.23;1.20;;;;;;;34.66;34.29;96414.25;2047017;28;20458;-63
2022/09/07 12:20:27;;;;;;;3.80;1.57;;;;;;;34.66;33.75;96392.56;2030103;28;20514;-63
2022/09/07 12:21:52;;;;;;;4.80;1.40;;;;;;;35.28;32.61;96402.41;2048855;28;20465;-63
2022/09/07 12:23:05;;;;;;;4.37;1.23;;;;;;;35.60;32.78;96405.66;2054453;28;20457;-63
2022/09/07 12:24:28;;;;;;;15.93;1.67;;;;;;;36.00;31.38;96403.34;2057588;28;20457;-63
2022/09/07 12:25:32;;;;;;;4.80;1.30;;;;;;;35.66;32.65;96395.78;2057081;28;20460;-63
2022/09/07 12:26:34;;;;;;;8.70;1.70;;;;;;;35.15;32.31;96395.28;2058703;28;20447;-63
2022/09/07 12:27:37;;;;;;;4.77;1.60;;;;;;;34.97;32.69;96402.41;2058641;28;20643;-63
2022/09/07 12:28:38;;;;;;;4.40;1.40;;;;;;;35.19;32.43;96401.91;2049575;28;20474;-63
2022/09/07 12:29:39;;;;;;;6.63;1.57;;;;;;;34.94;32.44;96400.16;2050099;28;21012;-63
2022/09/07 12:31:13;;;;;;;3.13;1.20;;;;;;;34.59;32.99;96387.25;2050572;28;20534;-63
2022/09/07 12:32:45;;;;;;;5.67;1.60;;;;;;;34.43;33.54;96385.97;2052568;28;20456;-63
2022/09/07 12:34:32;;;;;;;4.97;1.10;;;;;;;34.61;33.55;96387.81;2059060;28;20429;-63
2022/09/07 12:35:39;;;;;;;8.10;1.80;;;;;;;33.95;34.43;96382.06;2058332;28;20471;-63
2022/09/07 12:36:48;;;;;;;5.50;1.33;;;;;;;34.45;34.29;96392.00;2059636;28;20511;-63
2022/09/07 12:37:49;;;;;;;8.00;1.67;;;;;;;34.41;33.85;96384.53;2060264;28;20484;-63
2022/09/07 12:39:05;;;;;;;8.53;1.30;;;;;;;34.78;34.27;96390.75;2060704;28;20968;-63
2022/09/07 12:40:32;;;;;;;4.10;1.50;;;;;;;34.46;33.06;96387.41;2055572;28;20469;-63
2022/09/07 12:41:42;;;;;;;3.53;1.07;;;;;;;34.29;32.95;96387.16;2052508;28;20422;-64
2022/09/07 12:42:46;;;;;;;4.20;1.60;;;;;;;34.45;33.55;96373.03;2056255;28;20468;-63
2022/09/07 12:43:48;;;;;;;3.00;1.10;;;;;;;34.15;34.11;96386.47;2058805;28;20488;-64
2022/09/07 12:45:27;;;;;;;6.13;1.40;;;;;;;33.92;34.41;96392.56;2059130;28;20455;-64
2022/09/07 12:46:32;;;;;;;4.63;1.50;;;;;;;34.32;34.38;96392.97;2059033;28;20450;-63
2022/09/07 12:47:35;;;;;;;5.90;1.90;;;;;;;34.77;33.00;96397.22;2059117;28;20454;-63
2022/09/07 12:48:50;;;;;;;9.93;1.60;;;;;;;34.93;31.89;96390.38;2059598;28;21011;-63
2022/09/07 12:50:18;;;;;;;3.07;1.20;;;;;;;34.54;33.36;96392.53;2060595;28;20534;-63
2022/09/07 12:51:22;;;;;;;8.77;1.63;;;;;;;34.42;34.02;96388.91;2057865;28;20425;-63
2022/09/07 12:52:53;;;;;;;12.20;1.40;;;;;;;33.98;33.77;96391.63;2059518;28;20526;-64
2022/09/07 12:54:17;;;;;;;4.10;1.63;;;;;;;33.60;34.67;96384.44;2067012;28;20456;-63
2022/09/07 12:55:34;;;;;;;1.97;1.50;;;;;;;33.36;35.66;96390.47;2061386;28;20430;-63
2022/09/07 12:57:32;;;;;;;3.83;1.10;;;;;;;32.53;37.20;96386.75;2062029;28;20479;-63
2022/09/07 12:58:48;;;;;;;5.93;1.47;;;;;;;32.48;36.36;96369.50;2049665;28;20465;-63
2022/09/07 13:00:15;;;;;;;3.43;1.40;;;;;;;33.05;35.26;96370.50;2049716;28;20454;-63
2022/09/07 13:01:48;;;;;;;4.77;1.33;;;;;;;33.49;34.78;96383.31;2050629;28;20438;-63
2022/09/07 13:03:19;;;;;;;5.40;1.60;;;;;;;32.93;35.81;96379.50;2049777;28;20470;-63
2022/09/07 13:05:05;;;;;;;2.80;1.47;;;;;;;30.59;39.32;96368.66;2050490;28;20438;-63
2022/09/07 13:06:37;;;;;;;5.40;1.90;;;;;;;31.39;37.50;96367.19;2049748;28;20442;-63
2022/09/07 13:08:26;;;;;;;4.60;1.80;;;;;;;31.53;37.70;96370.72;2051840;28;20504;-63
2022/09/07 13:09:34;;;;;;;3.30;1.50;;;;;;;32.48;37.07;96361.41;2049162;28;20431;-63
2022/09/07 13:10:38;;;;;;;4.20;1.30;;;;;;;33.28;35.97;96354.75;2044332;29;20445;-62
2022/09/07 13:11:40;;;;;;;7.30;1.83;;;;;;;33.31;34.41;96359.75;2037583;28;20456;-63
2022/09/07 13:12:49;;;;;;;9.17;1.30;;;;;;;33.86;33.38;96364.47;2049701;28;20485;-63
2022/09/07 13:14:01;;;;;;;3.50;1.40;;;;;;;33.99;33.29;96348.09;2051054;28;20516;-63
2022/09/07 13:15:18;;;;;;;3.33;1.50;;;;;;;34.20;33.82;96348.72;2049340;28;20801;-63
2022/09/07 13:16:32;;;;;;;8.80;1.27;;;;;;;34.54;32.98;96361.88;2052018;28;20454;-62
2022/09/07 13:17:55;;;;;;;3.37;1.50;;;;;;;35.00;31.79;96355.03;2051456;28;20459;-63
2022/09/07 13:18:58;;;;;;;2.93;1.20;;;;;;;34.22;33.18;96346.63;2052587;28;20472;-63
2022/09/07 13:19:59;;;;;;;3.13;1.10;;;;;;;34.46;33.03;96352.16;2053156;28;20976;-63
2022/09/07 13:21:07;;;;;;;5.37;1.40;;;;;;;34.32;31.81;96352.31;2053910;28;20466;-63
2022/09/07 13:22:33;;;;;;;3.93;1.40;;;;;;;33.28;33.22;96349.34;2054050;28;20957;-63
2022/09/07 13:23:43;;;;;;;10.23;1.20;;;;;;;33.53;34.03;96346.63;2041399;29;20522;-63
2022/09/07 13:24:51;;;;;;;4.13;1.20;;;;;;;34.25;33.73;96348.03;2043837;28;20437;-63
2022/09/07 13:25:54;;;;;;;3.57;1.43;;;;;;;34.52;32.97;96353.97;2048372;28;20488;-63
2022/09/07 13:26:57;;;;;;;2.80;1.27;;;;;;;34.97;32.48;96352.75;2053282;28;20928;-63
2022/09/07 13:28:01;;;;;;;4.07;1.40;;;;;;;34.91;32.46;96342.88;2049839;28;20458;-63
2022/09/07 13:35:59;;;;;;;8.50;2.13;;;;;;;33.70;34.31;96336.09;2053783;28;20394;-65
2022/09/07 13:37:03;;;;;;;5.33;1.33;;;;;;;34.24;34.14;96347.19;2052853;28;20465;-64
2022/09/07 13:38:10;;;;;;;5.40;1.40;;;;;;;33.82;32.92;96333.50;2049529;28;20466;-64
2022/09/07 13:39:16;;;;;;;9.33;1.60;;;;;;;34.10;32.09;96330.25;2048855;28;21222;-65
2022/09/07 13:40:22;;;;;;;3.00;1.33;;;;;;;34.11;32.75;96342.75;2051257;28;20434;-65
2022/09/07 13:41:35;;;;;;;4.50;1.23;;;;;;;34.32;32.77;96330.66;2051942;28;20504;-65
2022/09/07 13:42:42;;;;;;;4.83;1.40;;;;;;;33.34;34.22;96338.50;2045264;28;20548;-65
2022/09/07 13:43:48;;;;;;;5.83;1.57;;;;;;;34.37;33.75;96340.81;2045951;28;20605;-65
2022/09/07 13:44:55;;;;;;;3.57;1.17;;;;;;;34.26;33.94;96326.13;2050601;28;20495;-65
2022/09/07 13:46:04;;;;;;;6.27;1.63;;;;;;;34.27;32.55;96327.78;2066637;28;20571;-65
2022/09/07 13:47:20;;;;;;;4.83;1.57;;;;;;;33.57;34.54;96326.19;2062093;28;20439;-64
2022/09/07 13:48:35;;;;;;;6.03;1.80;;;;;;;33.98;34.47;96337.47;2050635;28;20953;-65
2022/09/07 13:49:53;;;;;;;3.37;1.10;;;;;;;34.38;33.79;96334.34;2049900;28;20457;-65
2022/09/07 13:51:15;;;;;;;14.47;1.73;;;;;;;33.87;34.65;96330.94;2048680;28;20480;-65
2022/09/07 13:52:29;;;;;;;4.50;1.60;;;;;;;34.16;34.67;96326.66;2047502;28;20398;-64
2022/09/07 13:54:01;;;;;;;4.33;1.30;;;;;;;33.05;35.30;96320.97;2048252;28;20684;-64
2022/09/07 13:55:27;;;;;;;6.50;1.23;;;;;;;33.07;35.98;96324.28;2041420;28;20980;-64
2022/09/07 13:56:31;;;;;;;3.80;1.40;;;;;;;32.64;36.90;96325.78;2049070;28;20502;-66
2022/09/07 13:58:12;;;;;;;12.77;1.73;;;;;;;33.31;36.23;96328.09;2048133;28;20477;-63
2022/09/07 13:59:21;;;;;;;7.77;1.47;;;;;;;33.74;35.55;96326.47;2044797;29;20521;-64
2022/09/07 14:00:23;;;;;;;5.50;1.50;;;;;;;34.07;33.95;96314.47;2050771;28;20518;-62
2022/09/07 14:01:26;;;;;;;5.47;1.90;;;;;;;34.12;34.64;96320.03;2050827;28;21203;-63
2022/09/07 14:02:32;;;;;;;7.47;1.30;;;;;;;34.33;33.79;96315.22;2050883;28;20466;-62
2022/09/07 14:03:55;;;;;;;3.00;1.30;;;;;;;33.73;34.60;96327.50;2049718;28;20446;-63
2022/09/07 14:04:59;;;;;;;4.23;1.30;;;;;;;34.25;34.35;96329.06;2044150;29;21017;-63
2022/09/07 14:06:34;;;;;;;2.30;1.40;;;;;;;34.11;34.74;96328.41;2045379;29;20992;-64
2022/09/07 14:07:42;;;;;;;4.17;1.10;;;;;;;33.94;33.95;96323.59;2035454;29;20610;-64
2022/09/07 14:08:52;;;;;;;4.70;1.13;;;;;;;34.63;33.33;96325.28;2046162;28;20441;-62
2022/09/07 14:10:19;;;;;;;5.03;1.57;;;;;;;34.50;32.62;96324.41;2049173;28;20509;-62
2022/09/07 14:11:22;;;;;;;6.73;1.50;;;;;;;33.47;34.36;96325.88;2049438;28;20514;-63
2022/09/07 14:12:23;;;;;;;4.10;1.37;;;;;;;32.63;36.22;96321.41;2041136;28;20479;-63
2022/09/07 14:13:25;;;;;;;4.00;1.40;;;;;;;31.51;37.41;96322.34;2042985;29;20432;-62
2022/09/07 14:14:29;;;;;;;4.67;1.70;;;;;;;30.64;38.23;96318.72;2065094;28;20428;-62
2022/09/07 14:15:36;;;;;;;5.63;1.43;;;;;;;30.52;39.11;96313.09;2065946;28;20833;-64
2022/09/07 14:22:05;;;;;;;3.17;1.40;;;;;;;29.58;40.53;96309.91;2051157;28;20461;-63
2022/09/07 14:49:39;;;;;;;32.28;5.22;;;;;;;25.68;63.79;96334.56;2085731;28;20565;-66
2022/09/07 14:50:46;;;;;;;26.17;5.13;;;;;;;25.38;63.81;96310.22;2081772;28;20290;-65
2022/09/07 14:52:05;;;;;;;27.48;5.22;;;;;;;25.58;64.19;96327.59;2079811;28;20236;-66
2022/09/07 14:53:12;;;;;;;20.63;4.72;;;;;;;26.07;66.00;96328.47;2065646;28;20199;-67
2022/09/07 14:54:34;;;;;;;21.27;4.18;;;;;;;26.59;68.21;96323.50;2065568;28;20231;-68
2022/09/07 14:55:38;;;;;;;15.68;4.50;;;;;;;26.76;66.45;96317.06;2065009;28;20234;-68
2022/09/07 14:56:59;;;;;;;17.08;4.03;;;;;;;27.01;65.60;96298.13;2065192;28;20337;-66
2022/09/07 14:58:13;;;;;;;21.77;3.35;;;;;;;27.50;64.19;96302.22;2072991;28;20302;-67
2022/09/07 14:59:39;;;;;;;24.65;3.03;;;;;;;27.84;64.40;96296.28;2072941;28;20797;-68
2022/09/07 15:00:43;;;;;;;12.65;2.58;;;;;;;28.15;64.49;96297.13;2074231;28;20205;-68
2022/09/07 15:01:45;;;;;;;11.77;3.03;;;;;;;28.25;64.94;96295.00;2074764;28;20696;-68
2022/09/07 15:02:47;;;;;;;20.55;3.80;;;;;;;27.97;64.91;96282.25;2073790;28;20217;-67
2022/09/07 15:03:50;;;;;;;10.45;2.70;;;;;;;28.06;63.96;96293.75;2075438;28;20285;-64
2022/09/07 15:10:03;;;;;;;11.07;3.05;;;;;;;28.33;59.51;96286.81;2073467;28;20202;-65
2022/09/07 15:11:12;;;;;;;12.90;2.40;;;;;;;28.29;60.97;96288.22;2073767;28;20265;-64
2022/09/07 15:12:41;;;;;;;13.05;2.90;;;;;;;28.71;59.31;96285.81;2071076;28;20249;-63
2022/09/07 15:13:44;;;;;;;19.37;3.50;;;;;;;28.71;58.94;96263.47;2078276;28;20206;-65
2022/09/07 15:14:46;;;;;;;15.37;2.23;;;;;;;28.47;61.78;96260.13;2075626;28;20419;-69
2022/09/07 15:15:57;;;;;;;26.50;2.83;;;;;;;28.27;63.68;96276.84;2069487;28;20444;-69
2022/09/07 15:17:01;;;;;;;21.07;3.93;;;;;;;28.15;64.52;96275.66;2076168;28;20450;-69
2022/09/07 15:18:46;;;;;;;20.60;3.23;;;;;;;27.44;64.07;96276.13;2073898;28;20522;-66
2022/09/07 15:19:50;;;;;;;11.57;3.77;;;;;;;27.15;64.87;96257.13;2072716;28;20567;-67
2022/09/07 15:37:10;;;;;;;8.00;1.73;;;;;;;25.02;64.07;96268.69;2052063;27;1282431;-68
2022/09/07 15:38:31;;;;;;;10.30;2.35;;;;;;;25.20;66.76;96254.31;2073254;28;20233;-70
2022/09/07 15:39:53;;;;;;;14.25;2.28;;;;;;;25.40;64.00;96271.66;2070370;28;20206;-69
2022/09/07 15:50:17;;;;;;;6.32;2.50;;;;;;;25.00;63.46;96264.50;2093499;27;20795;-65
2022/09/07 15:51:21;;;;;;;8.18;1.70;;;;;;;24.69;62.29;96251.84;2087011;28;20215;-67
2022/09/07 15:52:47;;;;;;;8.10;1.92;;;;;;;25.01;65.52;96245.63;2072749;28;20256;-66
